Time;durP1;ratioP1;P1;durP2;ratioP2;P2;SDS_P1;SDS_P2;PMS_P1;PMS_P2;Temp;Humidity;BMP_temperature;BMP_pressure;BME280_temperature;BME280_humidity;BME280_pressure;Samples;Min_cycle;Max_cycle;Signal;HPM_P1;HPM_P2
2024/02/28 00:01:50;;;;;;;;;;;;;;;;;;2200089;66;2506;-83
2024/02/28 00:04:20;;;;;;;;;;;;;;;;;;2199740;66;2458;-84
2024/02/28 00:06:51;;;;;;;;;;;;;;;;;;2200203;59;2422;-83
2024/02/28 00:09:21;;;;;;;;;;;;;;;;;;2198616;66;2712;-83
2024/02/28 00:11:51;;;;;;;;;;;;;;;;;;2200444;59;2477;-83
2024/02/28 00:14:21;;;;;;;;;;;;;;;;;;2200414;59;2739;-83
2024/02/28 00:16:51;;;;;;;;;;;;;;;;;;2200939;59;1997;-83
2024/02/28 00:19:23;;;;;;;;;;;;;;;;;;2199698;66;2037;-83
2024/02/28 00:21:53;;;;;;;;;;;;;;;;;;2200581;63;2626;-84
2024/02/28 00:24:23;;;;;;;;;;;;;;;;;;2199814;59;1999;-83
2024/02/28 00:26:53;;;;;;;;;;;;;;;;;;2201111;59;2435;-84
2024/02/28 00:29:24;;;;;;;;;;;;;;;;;;2200000;59;2341;-84
2024/02/28 00:31:54;;;;;;;;;;;;;;;;;;2215855;58;2436;-83
2024/02/28 00:34:25;;;;;;;;;;;;;;;;;;2207348;66;2959;-83
2024/02/28 00:36:55;;;;;;;;;;;;;;;;;;2208474;59;2007;-83
2024/02/28 00:39:26;;;;;;;;;;;;;;;;;;2207123;59;2520;-84
2024/02/28 00:41:56;;;;;;;;;;;;;;;;;;2206914;59;1751;-83
2024/02/28 00:44:26;;;;;;;;;;;;;;;;;;2206876;59;1831;-84
2024/02/28 00:46:56;;;;;;;;;;;;;;;;;;2200447;59;1859;-84
2024/02/28 00:49:27;;;;;;;;;;;;;;;;;;2211692;61;2022;-81
2024/02/28 00:51:57;;;;;;;;;;;;;;;;;;2200406;59;2390;-81
2024/02/28 00:54:27;;;;;;;;;;;;;;;;;;2201051;59;2437;-81
2024/02/28 00:56:58;;;;;;;;;;;;;;;;;;2201702;66;2441;-81
2024/02/28 00:59:28;;;;;;;;;;;;;;;;;;2202807;60;2468;-80
2024/02/28 01:01:58;;;;;;;;;;;;;;;;;;2210166;59;2436;-81
2024/02/28 01:04:28;;;;;;;;;;;;;;;;;;2206553;59;1860;-83
2024/02/28 01:06:58;;;;;;;;;;;;;;;;;;2205523;66;2431;-83
2024/02/28 01:09:29;;;;;;;;;;;;;;;;;;2202850;59;2657;-83
2024/02/28 01:11:59;;;;;;;;;;;;;;;;;;2202940;66;2454;-84
2024/02/28 01:14:29;;;;;;;;;;;;;;;;;;2199121;59;2579;-83
2024/02/28 01:16:59;;;;;;;;;;;;;;;;;;2200351;59;2525;-84
2024/02/28 01:19:30;;;;;;;;;;;;;;;;;;2199343;59;1841;-84
2024/02/28 01:22:00;;;;;;;;;;;;;;;;;;2200922;59;1938;-84
2024/02/28 01:24:31;;;;;;;;;;;;;;;;;;2200150;59;2512;-84
2024/02/28 01:27:01;;;;;;;;;;;;;;;;;;2200164;59;2667;-83
2024/02/28 01:29:31;;;;;;;;;;;;;;;;;;2199378;59;2608;-84
2024/02/28 01:32:01;;;;;;;;;;;;;;;;;;2200304;66;1753;-84
2024/02/28 01:34:31;;;;;;;;;;;;;;;;;;2198330;66;2495;-83
2024/02/28 01:37:02;;;;;;;;;;;;;;;;;;2210847;66;3015;-84
2024/02/28 01:39:32;;;;;;;;;;;;;;;;;;2199092;59;2465;-84
2024/02/28 01:42:02;;;;;;;;;;;;;;;;;;2198343;59;2347;-84
2024/02/28 01:44:36;;;;;;;;;;;;;;;;;;2198910;59;2728;-83
2024/02/28 01:47:07;;;;;;;;;;;;;;;;;;2199831;59;2927;-84
2024/02/28 01:49:37;;;;;;;;;;;;;;;;;;2199269;66;2296;-84
2024/02/28 01:52:08;;;;;;;;;;;;;;;;;;2199681;59;2211;-84
2024/02/28 01:54:39;;;;;;;;;;;;;;;;;;2199143;59;2459;-84
2024/02/28 01:57:09;;;;;;;;;;;;;;;;;;2200930;66;2071;-84
2024/02/28 01:59:40;;;;;;;;;;;;;;;;;;2198994;66;2281;-84
2024/02/28 02:02:10;;;;;;;;;;;;;;;;;;2199617;59;2241;-85
2024/02/28 02:04:43;;;;;;;;;;;;;;;;;;2199433;59;1636;-84
2024/02/28 02:07:13;;;;;;;;;;;;;;;;;;2200224;66;2359;-84
2024/02/28 02:09:43;;;;;;;;;;;;;;;;;;2200081;59;2682;-84
2024/02/28 02:12:13;;;;;;;;;;;;;;;;;;2199694;59;2769;-84
2024/02/28 02:14:47;;;;;;;;;;;;;;;;;;2199622;59;2638;-83
2024/02/28 02:17:18;;;;;;;;;;;;;;;;;;2199565;66;2535;-84
2024/02/28 02:19:48;;;;;;;;;;;;;;;;;;2200867;59;2498;-84
2024/02/28 02:22:18;;;;;;;;;;;;;;;;;;2198984;66;2433;-84
2024/02/28 02:24:48;;;;;;;;;;;;;;;;;;2200684;66;2320;-84
2024/02/28 02:27:18;;;;;;;;;;;;;;;;;;2200032;59;2446;-84
2024/02/28 02:29:48;;;;;;;;;;;;;;;;;;2200724;59;2733;-84
2024/02/28 02:32:19;;;;;;;;;;;;;;;;;;2199856;59;3479;-83
2024/02/28 02:34:49;;;;;;;;;;;;;;;;;;2200377;66;1249;-84
2024/02/28 02:37:19;;;;;;;;;;;;;;;;;;2199834;66;1938;-84
2024/02/28 02:39:49;;;;;;;;;;;;;;;;;;2200778;59;1793;-84
2024/02/28 02:42:20;;;;;;;;;;;;;;;;;;2199613;59;1915;-84
2024/02/28 02:44:50;;;;;;;;;;;;;;;;;;2200886;59;1433;-84
2024/02/28 02:47:20;;;;;;;;;;;;;;;;;;2201461;59;1599;-83
2024/02/28 02:49:50;;;;;;;;;;;;;;;;;;2203905;66;1431;-84
2024/02/28 02:52:20;;;;;;;;;;;;;;;;;;2202655;66;1352;-84
2024/02/28 02:54:51;;;;;;;;;;;;;;;;;;2204402;59;1376;-84
2024/02/28 02:57:21;;;;;;;;;;;;;;;;;;2202450;59;1947;-84
2024/02/28 02:59:51;;;;;;;;;;;;;;;;;;2202977;59;1019;-84
2024/02/28 03:02:21;;;;;;;;;;;;;;;;;;2202078;66;1210;-83
2024/02/28 03:04:51;;;;;;;;;;;;;;;;;;2202226;59;1595;-83
2024/02/28 03:07:22;;;;;;;;;;;;;;;;;;2201084;66;1333;-83
2024/02/28 03:09:52;;;;;;;;;;;;;;;;;;2202173;61;1811;-84
2024/02/28 03:12:22;;;;;;;;;;;;;;;;;;2200781;66;1417;-84
2024/02/28 03:14:52;;;;;;;;;;;;;;;;;;2201591;59;1398;-84
2024/02/28 03:17:23;;;;;;;;;;;;;;;;;;2213282;66;1944;-83
2024/02/28 03:19:53;;;;;;;;;;;;;;;;;;2201303;66;1475;-84
2024/02/28 03:22:23;;;;;;;;;;;;;;;;;;2200301;66;1270;-84
2024/02/28 03:24:53;;;;;;;;;;;;;;;;;;2201467;66;1422;-84
2024/02/28 03:27:24;;;;;;;;;;;;;;;;;;2200591;59;1101;-84
2024/02/28 03:29:54;;;;;;;;;;;;;;;;;;2201121;66;1426;-84
2024/02/28 03:32:24;;;;;;;;;;;;;;;;;;2213178;66;1404;-84
2024/02/28 03:34:54;;;;;;;;;;;;;;;;;;2202014;66;1401;-83
2024/02/28 03:37:24;;;;;;;;;;;;;;;;;;2199704;66;1921;-84
2024/02/28 03:39:54;;;;;;;;;;;;;;;;;;2201058;59;1875;-84
2024/02/28 03:42:25;;;;;;;;;;;;;;;;;;2199890;66;1325;-84
2024/02/28 03:44:55;;;;;;;;;;;;;;;;;;2200752;59;1662;-84
2024/02/28 03:47:25;;;;;;;;;;;;;;;;;;2199450;59;1410;-84
2024/02/28 03:49:57;;;;;;;;;;;;;;;;;;2201508;66;1356;-84
2024/02/28 03:52:28;;;;;;;;;;;;;;;;;;2199691;66;1209;-83
2024/02/28 03:54:59;;;;;;;;;;;;;;;;;;2200468;58;2840;-84
2024/02/28 03:57:29;;;;;;;;;;;;;;;;;;2198942;59;1932;-84
2024/02/28 04:00:00;;;;;;;;;;;;;;;;;;2199918;59;1144;-84
2024/02/28 04:02:30;;;;;;;;;;;;;;;;;;2199511;59;1329;-84
2024/02/28 04:05:00;;;;;;;;;;;;;;;;;;2200138;66;1328;-84
2024/02/28 04:07:31;;;;;;;;;;;;;;;;;;2198101;59;1503;-84
2024/02/28 04:10:01;;;;;;;;;;;;;;;;;;2199756;59;1481;-83
2024/02/28 04:12:31;;;;;;;;;;;;;;;;;;2198667;66;1612;-84
2024/02/28 04:15:02;;;;;;;;;;;;;;;;;;2205890;59;1709;-84
2024/02/28 04:17:32;;;;;;;;;;;;;;;;;;2200956;59;1995;-84
2024/02/28 04:20:04;;;;;;;;;;;;;;;;;;2199900;63;1417;-84
2024/02/28 04:22:34;;;;;;;;;;;;;;;;;;2198546;66;1426;-83
2024/02/28 04:25:05;;;;;;;;;;;;;;;;;;2199774;59;1187;-83
2024/02/28 04:27:36;;;;;;;;;;;;;;;;;;2199086;59;1656;-83
2024/02/28 04:30:06;;;;;;;;;;;;;;;;;;2214714;66;1208;-83
2024/02/28 04:32:38;;;;;;;;;;;;;;;;;;2199381;59;1273;-84
2024/02/28 04:35:08;;;;;;;;;;;;;;;;;;2212656;66;1411;-83
2024/02/28 04:37:38;;;;;;;;;;;;;;;;;;2198425;66;1928;-83
2024/02/28 04:40:08;;;;;;;;;;;;;;;;;;2200175;59;1825;-83
2024/02/28 04:42:39;;;;;;;;;;;;;;;;;;2198669;62;1262;-83
2024/02/28 04:45:09;;;;;;;;;;;;;;;;;;2200659;59;1335;-83
2024/02/28 04:47:39;;;;;;;;;;;;;;;;;;2199097;66;1536;-83
2024/02/28 04:50:10;;;;;;;;;;;;;;;;;;2200007;61;1505;-84
2024/02/28 04:52:40;;;;;;;;;;;;;;;;;;2198887;66;1406;-84
2024/02/28 04:55:10;;;;;;;;;;;;;;;;;;2199551;59;1409;-83
2024/02/28 04:57:41;;;;;;;;;;;;;;;;;;2211211;66;1949;-84
2024/02/28 05:00:11;;;;;;;;;;;;;;;;;;2198904;66;1750;-84
2024/02/28 05:02:41;;;;;;;;;;;;;;;;;;2198468;59;1893;-83
2024/02/28 05:05:12;;;;;;;;;;;;;;;;;;2199417;59;1672;-84
2024/02/28 05:07:42;;;;;;;;;;;;;;;;;;2198608;59;1682;-83
2024/02/28 05:10:12;;;;;;;;;;;;;;;;;;2199999;66;1602;-83
2024/02/28 05:12:42;;;;;;;;;;;;;;;;;;2199203;60;1513;-83
2024/02/28 05:15:12;;;;;;;;;;;;;;;;;;2200408;59;1362;-83
2024/02/28 05:17:43;;;;;;;;;;;;;;;;;;2199083;66;1965;-83
2024/02/28 05:20:13;;;;;;;;;;;;;;;;;;2200169;59;1479;-83
2024/02/28 05:22:43;;;;;;;;;;;;;;;;;;2198986;66;1249;-83
2024/02/28 05:25:13;;;;;;;;;;;;;;;;;;2200054;66;1350;-84
2024/02/28 05:27:43;;;;;;;;;;;;;;;;;;2199860;59;1850;-83
2024/02/28 05:30:14;;;;;;;;;;;;;;;;;;2200738;59;1465;-83
2024/02/28 05:32:44;;;;;;;;;;;;;;;;;;2198693;66;1576;-83
2024/02/28 05:35:14;;;;;;;;;;;;;;;;;;2200603;66;1463;-83
2024/02/28 05:37:46;;;;;;;;;;;;;;;;;;2200142;59;2031;-83
2024/02/28 05:40:16;;;;;;;;;;;;;;;;;;2201271;59;1830;-83
2024/02/28 05:42:46;;;;;;;;;;;;;;;;;;2199807;60;1692;-84
2024/02/28 05:45:17;;;;;;;;;;;;;;;;;;2202102;59;1470;-83
2024/02/28 05:47:47;;;;;;;;;;;;;;;;;;2199913;66;1814;-83
2024/02/28 05:50:17;;;;;;;;;;;;;;;;;;2213753;66;1309;-84
2024/02/28 05:52:47;;;;;;;;;;;;;;;;;;2199212;59;2268;-83
2024/02/28 05:55:18;;;;;;;;;;;;;;;;;;2200730;66;1440;-84
2024/02/28 05:57:48;;;;;;;;;;;;;;;;;;2199022;62;2046;-83
2024/02/28 06:00:18;;;;;;;;;;;;;;;;;;2200392;66;1485;-83
2024/02/28 06:02:49;;;;;;;;;;;;;;;;;;2199279;59;1278;-84
2024/02/28 06:05:19;;;;;;;;;;;;;;;;;;2200621;66;1152;-84
2024/02/28 06:07:49;;;;;;;;;;;;;;;;;;2198626;66;1470;-81
2024/02/28 06:10:21;;;;;;;;;;;;;;;;;;2200747;66;1398;-81
2024/02/28 06:12:51;;;;;;;;;;;;;;;;;;2199942;66;1349;-81
2024/02/28 06:15:22;;;;;;;;;;;;;;;;;;2201122;59;1636;-83
2024/02/28 06:17:52;;;;;;;;;;;;;;;;;;2199169;66;1913;-84
2024/02/28 06:20:22;;;;;;;;;;;;;;;;;;2201547;66;1115;-81
2024/02/28 06:22:52;;;;;;;;;;;;;;;;;;2200298;66;1504;-81
2024/02/28 06:25:23;;;;;;;;;;;;;;;;;;2216982;66;1178;-81
2024/02/28 06:27:54;;;;;;;;;;;;;;;;;;2199917;66;1386;-81
2024/02/28 06:30:24;;;;;;;;;;;;;;;;;;2200058;62;1490;-81
2024/02/28 06:32:54;;;;;;;;;;;;;;;;;;2199233;66;1621;-83
2024/02/28 06:35:24;;;;;;;;;;;;;;;;;;2200560;66;1392;-81
2024/02/28 06:37:54;;;;;;;;;;;;;;;;;;2202242;59;2003;-81
2024/02/28 06:40:25;;;;;;;;;;;;;;;;;;2201778;59;1762;-81
2024/02/28 06:42:55;;;;;;;;;;;;;;;;;;2200028;66;1160;-81
2024/02/28 06:45:25;;;;;;;;;;;;;;;;;;2213823;58;1534;-81
2024/02/28 06:47:56;;;;;;;;;;;;;;;;;;2200470;66;1775;-81
2024/02/28 06:50:26;;;;;;;;;;;;;;;;;;2200596;66;1683;-81
2024/02/28 06:52:56;;;;;;;;;;;;;;;;;;2200193;59;1624;-84
2024/02/28 06:55:26;;;;;;;;;;;;;;;;;;2200040;60;1206;-84
2024/02/28 06:57:56;;;;;;;;;;;;;;;;;;2199740;66;1948;-81
2024/02/28 07:00:27;;;;;;;;;;;;;;;;;;2200997;66;1300;-82
2024/02/28 07:02:57;;;;;;;;;;;;;;;;;;2201217;59;1821;-81
2024/02/28 07:05:27;;;;;;;;;;;;;;;;;;2201495;66;1528;-81
2024/02/28 07:07:57;;;;;;;;;;;;;;;;;;2199970;59;2320;-83
2024/02/28 07:10:27;;;;;;;;;;;;;;;;;;2200815;59;1744;-83
2024/02/28 07:12:57;;;;;;;;;;;;;;;;;;2200530;59;1223;-83
2024/02/28 07:15:28;;;;;;;;;;;;;;;;;;2201146;59;1468;-84
2024/02/28 07:17:58;;;;;;;;;;;;;;;;;;2199296;59;1917;-83
2024/02/28 07:20:28;;;;;;;;;;;;;;;;;;2211975;66;2279;-83
2024/02/28 07:22:58;;;;;;;;;;;;;;;;;;2200263;66;2194;-84
2024/02/28 07:25:29;;;;;;;;;;;;;;;;;;2200783;59;1625;-84
2024/02/28 07:27:59;;;;;;;;;;;;;;;;;;2198783;59;2414;-84
2024/02/28 07:30:30;;;;;;;;;;;;;;;;;;2200117;59;1501;-84
2024/02/28 07:33:00;;;;;;;;;;;;;;;;;;2199477;59;1716;-84
2024/02/28 07:35:30;;;;;;;;;;;;;;;;;;2201538;66;1420;-84
2024/02/28 07:38:01;;;;;;;;;;;;;;;;;;2199899;59;1939;-84
2024/02/28 07:40:31;;;;;;;;;;;;;;;;;;2201850;58;1944;-84
2024/02/28 07:43:01;;;;;;;;;;;;;;;;;;2199701;59;1250;-84
2024/02/28 07:45:31;;;;;;;;;;;;;;;;;;2201958;59;1712;-84
2024/02/28 07:48:01;;;;;;;;;;;;;;;;;;2200193;66;1765;-84
2024/02/28 07:50:32;;;;;;;;;;;;;;;;;;2200287;59;1647;-81
2024/02/28 07:53:02;;;;;;;;;;;;;;;;;;2202751;59;1638;-82
2024/02/28 07:55:33;;;;;;;;;;;;;;;;;;2203099;59;1937;-81
2024/02/28 07:58:03;;;;;;;;;;;;;;;;;;2200703;66;1969;-81
2024/02/28 08:00:33;;;;;;;;;;;;;;;;;;2202705;66;1279;-82
2024/02/28 08:03:04;;;;;;;;;;;;;;;;;;2200638;59;1556;-81
2024/02/28 08:05:38;;;;;;;;;;;;;;;;;;2202086;66;1181;-82
2024/02/28 08:08:09;;;;;;;;;;;;;;;;;;2200041;59;1434;-84
2024/02/28 08:10:39;;;;;;;;;;;;;;;;;;2200975;66;1157;-84
2024/02/28 08:13:09;;;;;;;;;;;;;;;;;;2199660;66;1525;-84
2024/02/28 08:15:39;;;;;;;;;;;;;;;;;;2201073;59;1932;-82
2024/02/28 08:18:11;;;;;;;;;;;;;;;;;;2200017;66;1786;-82
2024/02/28 08:20:41;;;;;;;;;;;;;;;;;;2201190;59;1346;-82
2024/02/28 08:23:12;;;;;;;;;;;;;;;;;;2200390;66;1561;-81
2024/02/28 08:25:42;;;;;;;;;;;;;;;;;;2201822;66;1384;-82
2024/02/28 08:28:12;;;;;;;;;;;;;;;;;;2201197;66;2104;-82
2024/02/28 08:30:42;;;;;;;;;;;;;;;;;;2202194;66;1265;-82
2024/02/28 08:33:13;;;;;;;;;;;;;;;;;;2201068;66;1510;-82
2024/02/28 08:35:43;;;;;;;;;;;;;;;;;;2202800;58;2084;-82
2024/02/28 08:38:13;;;;;;;;;;;;;;;;;;2200357;59;1631;-83
2024/02/28 08:40:43;;;;;;;;;;;;;;;;;;2202940;59;1777;-82
2024/02/28 08:43:13;;;;;;;;;;;;;;;;;;2201378;66;1743;-82
2024/02/28 08:45:43;;;;;;;;;;;;;;;;;;2202751;59;1400;-82
2024/02/28 08:48:14;;;;;;;;;;;;;;;;;;2201851;66;1434;-82
2024/02/28 08:50:44;;;;;;;;;;;;;;;;;;2202513;66;1228;-82
2024/02/28 08:53:14;;;;;;;;;;;;;;;;;;2201817;66;1398;-83
2024/02/28 08:55:44;;;;;;;;;;;;;;;;;;2203425;66;2000;-83
2024/02/28 08:58:14;;;;;;;;;;;;;;;;;;2202107;66;1668;-83
2024/02/28 09:00:45;;;;;;;;;;;;;;;;;;2202360;66;1358;-83
2024/02/28 09:03:15;;;;;;;;;;;;;;;;;;2201941;59;1288;-83
2024/02/28 09:05:45;;;;;;;;;;;;;;;;;;2202288;66;1330;-82
2024/02/28 09:08:16;;;;;;;;;;;;;;;;;;2213626;66;1533;-83
2024/02/28 09:10:47;;;;;;;;;;;;;;;;;;2203294;59;1632;-83
2024/02/28 09:13:18;;;;;;;;;;;;;;;;;;2214488;59;1450;-83
2024/02/28 09:15:48;;;;;;;;;;;;;;;;;;2202369;66;2006;-83
2024/02/28 09:18:18;;;;;;;;;;;;;;;;;;2202778;59;1463;-83
2024/02/28 09:20:48;;;;;;;;;;;;;;;;;;2202995;66;1128;-84
2024/02/28 09:23:18;;;;;;;;;;;;;;;;;;2201575;59;1571;-84
2024/02/28 09:25:49;;;;;;;;;;;;;;;;;;2202184;66;1488;-84
2024/02/28 09:28:19;;;;;;;;;;;;;;;;;;2202131;66;1430;-84
2024/02/28 09:30:50;;;;;;;;;;;;;;;;;;2202772;66;2130;-83
2024/02/28 09:33:21;;;;;;;;;;;;;;;;;;2213821;66;1740;-83
2024/02/28 09:35:51;;;;;;;;;;;;;;;;;;2202336;66;1976;-83
2024/02/28 09:38:21;;;;;;;;;;;;;;;;;;2201787;66;1917;-83
2024/02/28 09:40:52;;;;;;;;;;;;;;;;;;2202199;59;1728;-83
2024/02/28 09:43:27;;;;;;;;;;;;;;;;;;2202583;66;1450;-84
2024/02/28 09:46:03;;;;;;;;;;;;;;;;;;2211256;58;1892;-82
2024/02/28 09:48:35;;;;;;;;;;;;;;;;;;2203076;59;2494;-83
2024/02/28 09:51:05;;;;;;;;;;;;;;;;;;2202211;66;1398;-84
2024/02/28 09:53:37;;;;;;;;;;;;;;;;;;2202320;59;1704;-83
2024/02/28 09:56:07;;;;;;;;;;;;;;;;;;2200863;59;2047;-83
2024/02/28 09:58:38;;;;;;;;;;;;;;;;;;2201970;60;1993;-83
2024/02/28 10:01:11;;;;;;;;;;;;;;;;;;2203137;59;1755;-83
2024/02/28 10:03:43;;;;;;;;;;;;;;;;;;2204997;66;1945;-83
2024/02/28 10:06:13;;;;;;;;;;;;;;;;;;2203087;66;1759;-83
2024/02/28 10:08:47;;;;;;;;;;;;;;;;;;2202438;66;1343;-82
2024/02/28 10:11:18;;;;;;;;;;;;;;;;;;2202320;66;1538;-82
2024/02/28 10:13:48;;;;;;;;;;;;;;;;;;2204581;59;1403;-82
2024/02/28 10:16:19;;;;;;;;;;;;;;;;;;2214170;59;4574;-83
2024/02/28 10:18:49;;;;;;;;;;;;;;;;;;2204441;59;1528;-83
2024/02/28 10:21:19;;;;;;;;;;;;;;;;;;2202889;59;2146;-82
2024/02/28 10:23:49;;;;;;;;;;;;;;;;;;2202459;59;1577;-82
2024/02/28 10:26:19;;;;;;;;;;;;;;;;;;2201308;59;1477;-82
2024/02/28 10:28:51;;;;;;;;;;;;;;;;;;2201558;66;1428;-82
2024/02/28 10:31:21;;;;;;;;;;;;;;;;;;2200935;59;1800;-83
2024/02/28 10:33:51;;;;;;;;;;;;;;;;;;2201911;59;1988;-82
2024/02/28 10:36:22;;;;;;;;;;;;;;;;;;2200803;62;1936;-82
2024/02/28 10:38:53;;;;;;;;;;;;;;;;;;2202563;59;2263;-83
2024/02/28 10:41:25;;;;;;;;;;;;;;;;;;2200986;59;1992;-83
2024/02/28 10:43:55;;;;;;;;;;;;;;;;;;2201996;66;2208;-83
2024/02/28 10:46:25;;;;;;;;;;;;;;;;;;2197210;59;2122;-82
2024/02/28 10:48:57;;;;;;;;;;;;;;;;;;2201609;59;2320;-82
2024/02/28 10:51:27;;;;;;;;;;;;;;;;;;2214273;58;2118;-82
2024/02/28 10:54:13;;;;;;;;;;;;;;;;;;2201156;59;2363;-82
2024/02/28 10:56:43;;;;;;;;;;;;;;;;;;2204391;59;1925;-83
2024/02/28 10:59:13;;;;;;;;;;;;;;;;;;2202323;59;2048;-82
2024/02/28 11:01:44;;;;;;;;;;;;;;;;;;2201151;59;1731;-82
2024/02/28 11:04:18;;;;;;;;;;;;;;;;;;2214568;58;2021;-82
2024/02/28 11:06:53;;;;;;;;;;;;;;;;;;2218371;66;1543;-83
2024/02/28 11:09:25;;;;;;;;;;;;;;;;;;2201574;59;1409;-82
2024/02/28 11:11:56;;;;;;;;;;;;;;;;;;2202018;59;1664;-82
2024/02/28 11:14:26;;;;;;;;;;;;;;;;;;2201155;59;1546;-83
2024/02/28 11:17:00;;;;;;;;;;;;;;;;;;2216483;66;1955;-83
2024/02/28 11:19:32;;;;;;;;;;;;;;;;;;2203748;66;1498;-84
2024/02/28 11:22:04;;;;;;;;;;;;;;;;;;2202749;66;1373;-84
2024/02/28 11:24:36;;;;;;;;;;;;;;;;;;2203554;66;1796;-83
2024/02/28 11:27:06;;;;;;;;;;;;;;;;;;2213954;60;1395;-82
2024/02/28 11:29:37;;;;;;;;;;;;;;;;;;2204078;66;1528;-82
2024/02/28 11:32:07;;;;;;;;;;;;;;;;;;2212510;66;2228;-83
2024/02/28 11:34:40;;;;;;;;;;;;;;;;;;2202965;66;2268;-84
2024/02/28 11:37:10;;;;;;;;;;;;;;;;;;2199979;66;2169;-84
2024/02/28 11:39:45;;;;;;;;;;;;;;;;;;2202309;59;3055;-84
2024/02/28 11:42:16;;;;;;;;;;;;;;;;;;2212710;58;2010;-84
2024/02/28 11:44:54;;;;;;;;;;;;;;;;;;2202418;59;1576;-84
2024/02/28 11:47:24;;;;;;;;;;;;;;;;;;2201067;59;1887;-84
2024/02/28 11:49:57;;;;;;;;;;;;;;;;;;2202353;66;1733;-84
2024/02/28 11:52:30;;;;;;;;;;;;;;;;;;2210311;58;2179;-84
2024/02/28 11:55:00;;;;;;;;;;;;;;;;;;2217646;58;1620;-84
2024/02/28 11:57:33;;;;;;;;;;;;;;;;;;2216513;66;2096;-84
2024/02/28 12:00:04;;;;;;;;;;;;;;;;;;2221125;66;1609;-83
2024/02/28 12:02:35;;;;;;;;;;;;;;;;;;2224311;58;1277;-83
2024/02/28 12:05:05;;;;;;;;;;;;;;;;;;2219430;66;1546;-85
2024/02/28 12:07:36;;;;;;;;;;;;;;;;;;2222474;66;1447;-85
2024/02/28 12:10:08;;;;;;;;;;;;;;;;;;2220307;59;1494;-85
2024/02/28 12:12:39;;;;;;;;;;;;;;;;;;2216498;66;1665;-86
2024/02/28 12:15:09;;;;;;;;;;;;;;;;;;2217437;58;1472;-84
2024/02/28 12:17:40;;;;;;;;;;;;;;;;;;2221325;59;2030;-83
2024/02/28 12:20:10;;;;;;;;;;;;;;;;;;2219959;66;1537;-86
2024/02/28 12:22:40;;;;;;;;;;;;;;;;;;2216476;58;2933;-83
2024/02/28 12:25:11;;;;;;;;;;;;;;;;;;2221321;58;1607;-83
2024/02/28 12:27:41;;;;;;;;;;;;;;;;;;2223478;66;1489;-83
2024/02/28 12:30:12;;;;;;;;;;;;;;;;;;2221829;58;2091;-87
2024/02/28 12:32:42;;;;;;;;;;;;;;;;;;2222254;66;1387;-85
2024/02/28 12:35:12;;;;;;;;;;;;;;;;;;2220164;66;2212;-84
2024/02/28 12:37:43;;;;;;;;;;;;;;;;;;2214302;58;1931;-84
2024/02/28 12:40:15;;;;;;;;;;;;;;;;;;2216716;58;2019;-84
2024/02/28 12:42:45;;;;;;;;;;;;;;;;;;2217475;66;1341;-84
2024/02/28 12:45:16;;;;;;;;;;;;;;;;;;2213329;58;2062;-84
2024/02/28 12:47:46;;;;;;;;;;;;;;;;;;2211997;59;1489;-84
2024/02/28 12:50:16;;;;;;;;;;;;;;;;;;2215839;66;2275;-84
2024/02/28 12:52:50;;;;;;;;;;;;;;;;;;2213353;58;2284;-84
2024/02/28 12:55:23;;;;;;;;;;;;;;;;;;2215286;58;2098;-84
2024/02/28 12:57:53;;;;;;;;;;;;;;;;;;2220626;66;1939;-83
2024/02/28 13:00:24;;;;;;;;;;;;;;;;;;2218471;58;2358;-84
2024/02/28 13:02:55;;;;;;;;;;;;;;;;;;2220212;58;2158;-84
2024/02/28 13:05:25;;;;;;;;;;;;;;;;;;2220146;58;2272;-84
2024/02/28 13:07:55;;;;;;;;;;;;;;;;;;2220520;58;1574;-84
2024/02/28 13:10:26;;;;;;;;;;;;;;;;;;2220725;58;1653;-84
2024/02/28 13:12:56;;;;;;;;;;;;;;;;;;2221028;58;1671;-84
2024/02/28 13:15:26;;;;;;;;;;;;;;;;;;2220110;58;1503;-85
2024/02/28 13:17:56;;;;;;;;;;;;;;;;;;2220701;59;1927;-84
2024/02/28 13:20:26;;;;;;;;;;;;;;;;;;2217323;66;1481;-83
2024/02/28 13:22:57;;;;;;;;;;;;;;;;;;2218551;58;1941;-83
2024/02/28 13:25:27;;;;;;;;;;;;;;;;;;2220120;59;1836;-83
2024/02/28 13:27:57;;;;;;;;;;;;;;;;;;2221327;66;1287;-83
2024/02/28 13:30:27;;;;;;;;;;;;;;;;;;2220671;66;1393;-83
2024/02/28 13:32:58;;;;;;;;;;;;;;;;;;2222672;66;1549;-83
2024/02/28 13:35:30;;;;;;;;;;;;;;;;;;2216725;58;2078;-83
2024/02/28 13:38:01;;;;;;;;;;;;;;;;;;2220955;58;1910;-83
2024/02/28 13:40:31;;;;;;;;;;;;;;;;;;2215085;58;1710;-83
2024/02/28 13:43:02;;;;;;;;;;;;;;;;;;2216397;59;1541;-83
2024/02/28 13:45:32;;;;;;;;;;;;;;;;;;2221693;58;1551;-83
2024/02/28 13:48:02;;;;;;;;;;;;;;;;;;2219291;66;1262;-83
2024/02/28 13:50:33;;;;;;;;;;;;;;;;;;2224523;66;1999;-83
2024/02/28 13:53:03;;;;;;;;;;;;;;;;;;2224741;58;2354;-83
2024/02/28 13:55:33;;;;;;;;;;;;;;;;;;2224379;58;2232;-84
2024/02/28 13:58:04;;;;;;;;;;;;;;;;;;2223040;58;2193;-82
2024/02/28 14:00:35;;;;;;;;;;;;;;;;;;2222244;58;1350;-81
2024/02/28 14:03:08;;;;;;;;;;;;;;;;;;2222987;58;1298;-83
2024/02/28 14:05:38;;;;;;;;;;;;;;;;;;2223219;66;1508;-83
2024/02/28 14:08:11;;;;;;;;;;;;;;;;;;2223177;66;1455;-83
2024/02/28 14:10:42;;;;;;;;;;;;;;;;;;2221049;66;2062;-85
2024/02/28 14:13:12;;;;;;;;;;;;;;;;;;2222952;58;1516;-85
2024/02/28 14:15:42;;;;;;;;;;;;;;;;;;2220953;58;2016;-84
2024/02/28 14:18:13;;;;;;;;;;;;;;;;;;2217986;66;1904;-85
2024/02/28 14:20:43;;;;;;;;;;;;;;;;;;2218674;59;1936;-84
2024/02/28 14:23:13;;;;;;;;;;;;;;;;;;2223178;66;1656;-85
2024/02/28 14:25:43;;;;;;;;;;;;;;;;;;2220972;66;1470;-85
2024/02/28 14:28:14;;;;;;;;;;;;;;;;;;2218956;66;1333;-84
2024/02/28 14:30:45;;;;;;;;;;;;;;;;;;2220952;66;1542;-85
2024/02/28 14:33:15;;;;;;;;;;;;;;;;;;2218662;66;1703;-84
2024/02/28 14:35:46;;;;;;;;;;;;;;;;;;2221021;66;1491;-83
2024/02/28 14:38:16;;;;;;;;;;;;;;;;;;2221243;61;2006;-83
2024/02/28 14:40:46;;;;;;;;;;;;;;;;;;2222579;58;3385;-84
2024/02/28 14:43:17;;;;;;;;;;;;;;;;;;2221346;66;1581;-84
2024/02/28 14:45:47;;;;;;;;;;;;;;;;;;2221700;58;2318;-83
2024/02/28 14:48:17;;;;;;;;;;;;;;;;;;2214527;66;2414;-83
2024/02/28 14:50:47;;;;;;;;;;;;;;;;;;2217223;62;2496;-84
2024/02/28 14:53:20;;;;;;;;;;;;;;;;;;2222295;58;2384;-82
2024/02/28 14:55:51;;;;;;;;;;;;;;;;;;2215670;59;1674;-82
2024/02/28 14:58:21;;;;;;;;;;;;;;;;;;2221217;59;2357;-83
2024/02/28 15:00:51;;;;;;;;;;;;;;;;;;2221096;66;1123;-84
2024/02/28 15:03:23;;;;;;;;;;;;;;;;;;2220942;59;1663;-84
2024/02/28 15:05:53;;;;;;;;;;;;;;;;;;2224019;66;1467;-83
2024/02/28 15:08:23;;;;;;;;;;;;;;;;;;2220969;66;1575;-84
2024/02/28 15:10:54;;;;;;;;;;;;;;;;;;2221618;58;2010;-84
2024/02/28 15:13:24;;;;;;;;;;;;;;;;;;2221440;58;2113;-83
2024/02/28 15:15:54;;;;;;;;;;;;;;;;;;2221774;58;2102;-84
2024/02/28 15:18:24;;;;;;;;;;;;;;;;;;2216896;58;1967;-86
2024/02/28 15:20:54;;;;;;;;;;;;;;;;;;2225038;59;1531;-86
2024/02/28 15:23:25;;;;;;;;;;;;;;;;;;2224897;58;1693;-87
2024/02/28 15:25:55;;;;;;;;;;;;;;;;;;2223016;59;1398;-85
2024/02/28 15:28:26;;;;;;;;;;;;;;;;;;2222477;59;1814;-82
2024/02/28 15:30:56;;;;;;;;;;;;;;;;;;2226551;58;1863;-83
2024/02/28 15:33:27;;;;;;;;;;;;;;;;;;2224963;58;2170;-83
2024/02/28 15:35:58;;;;;;;;;;;;;;;;;;2226943;58;1927;-83
2024/02/28 15:38:28;;;;;;;;;;;;;;;;;;2225683;66;1542;-82
2024/02/28 15:40:58;;;;;;;;;;;;;;;;;;2226862;58;1557;-82
2024/02/28 15:43:28;;;;;;;;;;;;;;;;;;2224961;66;1603;-82
2024/02/28 15:45:59;;;;;;;;;;;;;;;;;;2224845;58;1330;-83
2024/02/28 15:48:29;;;;;;;;;;;;;;;;;;2222309;66;1575;-81
2024/02/28 15:50:59;;;;;;;;;;;;;;;;;;2219036;66;1562;-83
2024/02/28 15:53:29;;;;;;;;;;;;;;;;;;2223728;58;2259;-82
2024/02/28 15:55:59;;;;;;;;;;;;;;;;;;2217905;66;1994;-81
2024/02/28 15:58:30;;;;;;;;;;;;;;;;;;2222688;66;1421;-83
2024/02/28 16:01:00;;;;;;;;;;;;;;;;;;2220123;66;1481;-82
2024/02/28 16:03:30;;;;;;;;;;;;;;;;;;2217436;58;1441;-82
2024/02/28 16:06:01;;;;;;;;;;;;;;;;;;2222059;59;1714;-81
2024/02/28 16:08:31;;;;;;;;;;;;;;;;;;2221968;66;1382;-82
2024/02/28 16:11:02;;;;;;;;;;;;;;;;;;2221978;66;1559;-81
2024/02/28 16:13:32;;;;;;;;;;;;;;;;;;2221591;66;1478;-85
2024/02/28 16:16:03;;;;;;;;;;;;;;;;;;2223931;59;1982;-81
2024/02/28 16:18:33;;;;;;;;;;;;;;;;;;2221348;66;1778;-83
2024/02/28 16:21:04;;;;;;;;;;;;;;;;;;2223833;66;1457;-82
2024/02/28 16:23:34;;;;;;;;;;;;;;;;;;2219707;59;2178;-81
2024/02/28 16:26:05;;;;;;;;;;;;;;;;;;2220817;66;1801;-82
2024/02/28 16:28:35;;;;;;;;;;;;;;;;;;2218646;66;3532;-82
2024/02/28 16:31:06;;;;;;;;;;;;;;;;;;2217268;58;3334;-82
2024/02/28 16:33:36;;;;;;;;;;;;;;;;;;2219867;59;3247;-81
2024/02/28 16:36:06;;;;;;;;;;;;;;;;;;2220692;58;2437;-81
2024/02/28 16:38:36;;;;;;;;;;;;;;;;;;2220017;58;2204;-82
2024/02/28 16:41:07;;;;;;;;;;;;;;;;;;2221786;58;3133;-82
2024/02/28 16:43:38;;;;;;;;;;;;;;;;;;2217594;66;2086;-81
2024/02/28 16:46:08;;;;;;;;;;;;;;;;;;2221659;58;2142;-81
2024/02/28 16:48:39;;;;;;;;;;;;;;;;;;2216785;66;1516;-81
2024/02/28 16:51:10;;;;;;;;;;;;;;;;;;2221008;58;2231;-82
2024/02/28 16:53:40;;;;;;;;;;;;;;;;;;2210758;58;3594;-81
2024/02/28 16:56:10;;;;;;;;;;;;;;;;;;2198767;59;2234;-81
2024/02/28 16:58:42;;;;;;;;;;;;;;;;;;2208863;58;2736;-84
2024/02/28 17:01:13;;;;;;;;;;;;;;;;;;2197654;66;3079;-84
2024/02/28 17:03:43;;;;;;;;;;;;;;;;;;2197301;59;2127;-84
2024/02/28 17:06:13;;;;;;;;;;;;;;;;;;2196752;59;3566;-83
2024/02/28 17:08:44;;;;;;;;;;;;;;;;;;2195810;59;3449;-83
2024/02/28 17:11:14;;;;;;;;;;;;;;;;;;2210110;66;1297;-85
2024/02/28 17:13:44;;;;;;;;;;;;;;;;;;2195425;59;2331;-85
2024/02/28 17:16:16;;;;;;;;;;;;;;;;;;2197924;66;1940;-85
2024/02/28 17:18:46;;;;;;;;;;;;;;;;;;2196400;59;1316;-85
2024/02/28 17:21:17;;;;;;;;;;;;;;;;;;2205572;66;1877;-85
2024/02/28 17:23:47;;;;;;;;;;;;;;;;;;2195454;59;2095;-85
2024/02/28 17:26:17;;;;;;;;;;;;;;;;;;2197459;66;2451;-85